PWSweather.com
Personal Weather Stations
Station Observations
AZALEAPK1
San Diego, CA 92105

San Diego, CA 92105

Lat: 32.736, Lon: -117.108

Elevation: 302

Station Type: LaCrosse WS-2813U-IT

Latest ConditionsUpdated 6:49:03 AM PST Thursday, Nov 14, 2019
Currently Today's Max Today's Min Today's Average
Temperature 58.1°F14.5°C 59.4°F15.2°C 57.2°F14.0°C 58.2°F14.6°C
Dew Point 53.6°F12.0°C 54.5°F12.5°C 52.1°F11.2°C 53.2°F11.8°C
Winds 0.7 mph NNE1.1 kmh NNE 3.0 mph -4.8 kmh - - 0.5 mph 0.8 kmh
Wind Gusts 1.1 mph1.8 kmh 3.4 mph5.5 kmh - -
Humidity 85% 85% 82% 84%
Pressure 30.12 in1020.0 mb 30.12 in1020.0 mb 30.06 in1017.9 mb -
Hour Temp Dew Point Humidity Winds Wind Gusts Pressure Precip Precip Rate Daily Precip Total
06:49 AM 58.1°F14.5°C 53.6°F12.0°C 85% 0.7 mph NNE1.1 kmh NNE 1.1 mph1.8 kmh 30.12 in1020.0 mb 0.00 in0.0 mm 0.00 in0.0 mm 0.00 in0.0 mm
06:43 AM 58.1°F14.5°C 53.6°F12.0°C 85% Calm Calm 3.4 mph5.5 kmh 30.11 in1019.6 mb 0.00 in0.0 mm 0.00 in0.0 mm 0.00 in0.0 mm
06:38 AM 58.1°F14.5°C 53.6°F12.0°C 85% 2.3 mph NNE3.7 kmh NNE 3.4 mph5.5 kmh 30.11 in1019.6 mb 0.00 in0.0 mm 0.00 in0.0 mm 0.00 in0.0 mm
06:32 AM 58.0°F14.4°C 53.1°F11.7°C 84% 0.2 mph NNE0.3 kmh NNE 0.7 mph1.1 kmh 30.11 in1019.6 mb 0.00 in0.0 mm 0.00 in0.0 mm 0.00 in0.0 mm
06:26 AM 58.0°F14.4°C 53.1°F11.7°C 84% 0.1 mph NNE0.2 kmh NNE 1.6 mph2.6 kmh 30.11 in1019.6 mb 0.00 in0.0 mm 0.00 in0.0 mm 0.00 in0.0 mm
06:21 AM 58.0°F14.4°C 53.1°F11.7°C 84% 0.1 mph NNE0.2 kmh NNE 1.8 mph2.9 kmh 30.11 in1019.6 mb 0.00 in0.0 mm 0.00 in0.0 mm 0.00 in0.0 mm
06:15 AM 58.0°F14.4°C 53.1°F11.7°C 84% 0.4 mph NNE0.6 kmh NNE 1.8 mph2.9 kmh 30.11 in1019.6 mb 0.00 in0.0 mm 0.00 in0.0 mm 0.00 in0.0 mm
06:10 AM 58.0°F14.4°C 53.1°F11.7°C 84% 0.1 mph NNE0.2 kmh NNE 0.4 mph0.6 kmh 30.10 in1019.3 mb 0.00 in0.0 mm 0.00 in0.0 mm 0.00 in0.0 mm
06:05 AM 58.0°F14.4°C 53.1°F11.7°C 84% 0.1 mph NNE0.2 kmh NNE 0.7 mph1.1 kmh 30.10 in1019.3 mb 0.00 in0.0 mm 0.00 in0.0 mm 0.00 in0.0 mm
05:59 AM 58.0°F14.4°C 52.8°F11.6°C 83% 0.1 mph NNE0.2 kmh NNE 0.9 mph1.4 kmh 30.10 in1019.3 mb 0.00 in0.0 mm 0.00 in0.0 mm 0.00 in0.0 mm
05:54 AM 58.0°F14.4°C 52.8°F11.6°C 83% 0.2 mph NNE0.3 kmh NNE 1.8 mph2.9 kmh 30.09 in1019.0 mb 0.00 in0.0 mm 0.00 in0.0 mm 0.00 in0.0 mm
05:49 AM 58.0°F14.4°C 52.8°F11.6°C 83% 0.6 mph NNE1.0 kmh NNE 1.8 mph2.9 kmh 30.10 in1019.3 mb 0.00 in0.0 mm 0.00 in0.0 mm 0.00 in0.0 mm
05:44 AM 58.0°F14.4°C 52.8°F11.6°C 83% 0.8 mph NNE1.3 kmh NNE 1.6 mph2.6 kmh 30.09 in1019.0 mb 0.00 in0.0 mm 0.00 in0.0 mm 0.00 in0.0 mm
05:39 AM 58.1°F14.5°C 53.0°F11.7°C 83% 0.9 mph NNE1.4 kmh NNE 1.6 mph2.6 kmh 30.09 in1019.0 mb 0.00 in0.0 mm 0.00 in0.0 mm 0.00 in0.0 mm
05:33 AM 58.1°F14.5°C 53.0°F11.7°C 83% 0.2 mph NNE0.3 kmh NNE 0.7 mph1.1 kmh 30.09 in1019.0 mb 0.00 in0.0 mm 0.00 in0.0 mm 0.00 in0.0 mm
05:28 AM 58.3°F14.6°C 53.2°F11.8°C 83% Calm Calm 0.9 mph1.4 kmh 30.09 in1019.0 mb 0.00 in0.0 mm 0.00 in0.0 mm 0.00 in0.0 mm
05:20 AM 58.7°F14.8°C 53.6°F12.0°C 83% 0.4 mph NNE0.6 kmh NNE 1.1 mph1.8 kmh 30.09 in1019.0 mb 0.00 in0.0 mm 0.00 in0.0 mm 0.00 in0.0 mm
05:14 AM 58.7°F14.8°C 53.6°F12.0°C 83% 0.6 mph NNE1.0 kmh NNE 1.1 mph1.8 kmh 30.09 in1019.0 mb 0.00 in0.0 mm 0.00 in0.0 mm 0.00 in0.0 mm
05:08 AM 58.9°F14.9°C 53.7°F12.1°C 83% Calm Calm 0.7 mph1.1 kmh 30.09 in1019.0 mb 0.00 in0.0 mm 0.00 in0.0 mm 0.00 in0.0 mm
05:03 AM 59.0°F15.0°C 53.9°F12.2°C 83% 0.1 mph NNE0.2 kmh NNE 0.7 mph1.1 kmh 30.09 in1019.0 mb 0.00 in0.0 mm 0.00 in0.0 mm 0.00 in0.0 mm
04:58 AM 59.2°F15.1°C 54.1°F12.3°C 83% 0.1 mph NNE0.2 kmh NNE 0.4 mph0.6 kmh 30.08 in1018.6 mb 0.00 in0.0 mm 0.00 in0.0 mm 0.00 in0.0 mm
04:53 AM 59.2°F15.1°C 54.4°F12.4°C 84% Calm Calm -- 30.08 in1018.6 mb 0.00 in0.0 mm 0.00 in0.0 mm 0.00 in0.0 mm
04:47 AM 59.2°F15.1°C 54.4°F12.4°C 84% Calm Calm 0.7 mph1.1 kmh 30.09 in1019.0 mb 0.00 in0.0 mm 0.00 in0.0 mm 0.00 in0.0 mm
04:42 AM 59.4°F15.2°C 54.5°F12.5°C 84% 0.2 mph NNE0.3 kmh NNE 0.7 mph1.1 kmh 30.08 in1018.6 mb 0.00 in0.0 mm 0.00 in0.0 mm 0.00 in0.0 mm
04:36 AM 59.4°F15.2°C 54.5°F12.5°C 84% Calm Calm 2.2 mph3.5 kmh 30.08 in1018.6 mb 0.00 in0.0 mm 0.00 in0.0 mm 0.00 in0.0 mm
04:31 AM 59.4°F15.2°C 54.5°F12.5°C 84% 0.9 mph NNE1.4 kmh NNE 2.2 mph3.5 kmh 30.08 in1018.6 mb 0.00 in0.0 mm 0.00 in0.0 mm 0.00 in0.0 mm
04:24 AM 59.4°F15.2°C 54.5°F12.5°C 84% Calm Calm 1.1 mph1.8 kmh 30.08 in1018.6 mb 0.00 in0.0 mm 0.00 in0.0 mm 0.00 in0.0 mm
04:19 AM 59.4°F15.2°C 54.5°F12.5°C 84% 0.5 mph NNE0.8 kmh NNE 1.3 mph2.1 kmh 30.08 in1018.6 mb 0.00 in0.0 mm 0.00 in0.0 mm 0.00 in0.0 mm
04:12 AM 59.2°F15.1°C 54.4°F12.4°C 84% 0.5 mph NNE0.8 kmh NNE 1.8 mph2.9 kmh 30.08 in1018.6 mb 0.00 in0.0 mm 0.00 in0.0 mm 0.00 in0.0 mm
04:05 AM 59.2°F15.1°C 54.4°F12.4°C 84% 1.1 mph NNE1.8 kmh NNE 1.1 mph1.8 kmh 30.08 in1018.6 mb 0.00 in0.0 mm 0.00 in0.0 mm 0.00 in0.0 mm
03:59 AM 59.2°F15.1°C 54.4°F12.4°C 84% 0.1 mph NNE0.2 kmh NNE 1.8 mph2.9 kmh 30.08 in1018.6 mb 0.00 in0.0 mm 0.00 in0.0 mm 0.00 in0.0 mm
03:54 AM 59.0°F15.0°C 54.2°F12.3°C 84% 0.1 mph NNE0.2 kmh NNE 1.8 mph2.9 kmh 30.08 in1018.6 mb 0.00 in0.0 mm 0.00 in0.0 mm 0.00 in0.0 mm
03:47 AM 59.0°F15.0°C 54.2°F12.3°C 84% 0.3 mph NNE0.5 kmh NNE 1.3 mph2.1 kmh 30.08 in1018.6 mb 0.00 in0.0 mm 0.00 in0.0 mm 0.00 in0.0 mm
03:41 AM 59.0°F15.0°C 54.2°F12.3°C 84% 0.2 mph NNE0.3 kmh NNE 1.8 mph2.9 kmh 30.08 in1018.6 mb 0.00 in0.0 mm 0.00 in0.0 mm 0.00 in0.0 mm
03:36 AM 58.9°F14.9°C 54.0°F12.2°C 84% 0.1 mph NNE0.2 kmh NNE 1.8 mph2.9 kmh 30.08 in1018.6 mb 0.00 in0.0 mm 0.00 in0.0 mm 0.00 in0.0 mm
03:31 AM 58.9°F14.9°C 54.0°F12.2°C 84% 1.0 mph NNE1.6 kmh NNE 1.3 mph2.1 kmh 30.08 in1018.6 mb 0.00 in0.0 mm 0.00 in0.0 mm 0.00 in0.0 mm
03:26 AM 58.7°F14.8°C 53.8°F12.1°C 84% Calm Calm 1.3 mph2.1 kmh 30.08 in1018.6 mb 0.00 in0.0 mm 0.00 in0.0 mm 0.00 in0.0 mm
03:21 AM 58.7°F14.8°C 53.8°F12.1°C 84% 0.6 mph NNE1.0 kmh NNE 2.0 mph3.2 kmh 30.08 in1018.6 mb 0.00 in0.0 mm 0.00 in0.0 mm 0.00 in0.0 mm
03:15 AM 58.7°F14.8°C 53.8°F12.1°C 84% 0.9 mph NNE1.4 kmh NNE 2.0 mph3.2 kmh 30.08 in1018.6 mb 0.00 in0.0 mm 0.00 in0.0 mm 0.00 in0.0 mm
03:10 AM 58.7°F14.8°C 53.8°F12.1°C 84% 0.1 mph NNE0.2 kmh NNE 0.9 mph1.4 kmh 30.08 in1018.6 mb 0.00 in0.0 mm 0.00 in0.0 mm 0.00 in0.0 mm
03:05 AM 58.5°F14.7°C 53.6°F12.0°C 84% 0.4 mph NNE0.6 kmh NNE 1.1 mph1.8 kmh 30.08 in1018.6 mb 0.00 in0.0 mm 0.00 in0.0 mm 0.00 in0.0 mm
02:59 AM 58.5°F14.7°C 53.6°F12.0°C 84% 0.7 mph NNE1.1 kmh NNE 1.8 mph2.9 kmh 30.08 in1018.6 mb 0.00 in0.0 mm 0.00 in0.0 mm 0.00 in0.0 mm
02:54 AM 58.5°F14.7°C 53.6°F12.0°C 84% Calm Calm 1.8 mph2.9 kmh 30.08 in1018.6 mb 0.00 in0.0 mm 0.00 in0.0 mm 0.00 in0.0 mm
02:49 AM 58.3°F14.6°C 53.5°F11.9°C 84% 1.8 mph NNE2.9 kmh NNE 1.8 mph2.9 kmh 30.08 in1018.6 mb 0.00 in0.0 mm 0.00 in0.0 mm 0.00 in0.0 mm
02:43 AM 58.3°F14.6°C 53.5°F11.9°C 84% 0.3 mph NNE0.5 kmh NNE 1.8 mph2.9 kmh 30.08 in1018.6 mb 0.00 in0.0 mm 0.00 in0.0 mm 0.00 in0.0 mm
02:38 AM 58.3°F14.6°C 53.5°F11.9°C 84% 0.7 mph NNE1.1 kmh NNE 2.2 mph3.5 kmh 30.08 in1018.6 mb 0.00 in0.0 mm 0.00 in0.0 mm 0.00 in0.0 mm
02:33 AM 58.1°F14.5°C 53.3°F11.8°C 84% 1.1 mph NNE1.8 kmh NNE 2.2 mph3.5 kmh 30.08 in1018.6 mb 0.00 in0.0 mm 0.00 in0.0 mm 0.00 in0.0 mm
02:27 AM 58.1°F14.5°C 53.6°F12.0°C 85% 0.7 mph NNE1.1 kmh NNE 2.0 mph3.2 kmh 30.08 in1018.6 mb 0.00 in0.0 mm 0.00 in0.0 mm 0.00 in0.0 mm
02:21 AM 58.0°F14.4°C 53.5°F11.9°C 85% 1.1 mph NNE1.8 kmh NNE 2.2 mph3.5 kmh 30.08 in1018.6 mb 0.00 in0.0 mm 0.00 in0.0 mm 0.00 in0.0 mm
02:15 AM 58.0°F14.4°C 53.5°F11.9°C 85% 0.3 mph NNE0.5 kmh NNE 2.2 mph3.5 kmh 30.08 in1018.6 mb 0.00 in0.0 mm 0.00 in0.0 mm 0.00 in0.0 mm
02:10 AM 57.8°F14.3°C 53.3°F11.8°C 85% 1.1 mph NNE1.8 kmh NNE 1.6 mph2.6 kmh 30.08 in1018.6 mb 0.00 in0.0 mm 0.00 in0.0 mm 0.00 in0.0 mm
02:04 AM 57.8°F14.3°C 53.3°F11.8°C 85% 0.6 mph NNE1.0 kmh NNE 1.6 mph2.6 kmh 30.08 in1018.6 mb 0.00 in0.0 mm 0.00 in0.0 mm 0.00 in0.0 mm
01:57 AM 57.6°F14.2°C 52.7°F11.5°C 84% 0.2 mph NNE0.3 kmh NNE 1.1 mph1.8 kmh 30.08 in1018.6 mb 0.00 in0.0 mm 0.00 in0.0 mm 0.00 in0.0 mm
01:52 AM 57.4°F14.1°C 52.6°F11.4°C 84% 0.4 mph NNE0.6 kmh NNE 3.4 mph5.5 kmh 30.08 in1018.6 mb 0.00 in0.0 mm 0.00 in0.0 mm 0.00 in0.0 mm
01:47 AM 57.4°F14.1°C 52.6°F11.4°C 84% 0.7 mph NNE1.1 kmh NNE 3.4 mph5.5 kmh 30.08 in1018.6 mb 0.00 in0.0 mm 0.00 in0.0 mm 0.00 in0.0 mm
01:41 AM 57.2°F14.0°C 52.1°F11.2°C 83% 3.0 mph NNE4.8 kmh NNE 3.1 mph5.0 kmh 30.08 in1018.6 mb 0.00 in0.0 mm 0.00 in0.0 mm 0.00 in0.0 mm
01:34 AM 57.2°F14.0°C 52.1°F11.2°C 83% 0.6 mph NNE1.0 kmh NNE 1.8 mph2.9 kmh 30.08 in1018.6 mb 0.00 in0.0 mm 0.00 in0.0 mm 0.00 in0.0 mm
01:29 AM 57.2°F14.0°C 52.1°F11.2°C 83% 0.3 mph NNE0.5 kmh NNE 1.8 mph2.9 kmh 30.08 in1018.6 mb 0.00 in0.0 mm 0.00 in0.0 mm 0.00 in0.0 mm
01:24 AM 57.2°F14.0°C 52.1°F11.2°C 83% 0.3 mph NNE0.5 kmh NNE 0.9 mph1.4 kmh 30.08 in1018.6 mb 0.00 in0.0 mm 0.00 in0.0 mm 0.00 in0.0 mm
01:19 AM 57.2°F14.0°C 52.1°F11.2°C 83% 0.3 mph NNE0.5 kmh NNE 1.1 mph1.8 kmh 30.09 in1019.0 mb 0.00 in0.0 mm 0.00 in0.0 mm 0.00 in0.0 mm
01:14 AM 57.2°F14.0°C 52.1°F11.2°C 83% 0.4 mph NNE0.6 kmh NNE 1.3 mph2.1 kmh 30.08 in1018.6 mb 0.00 in0.0 mm 0.00 in0.0 mm 0.00 in0.0 mm
01:08 AM 57.2°F14.0°C 52.1°F11.2°C 83% 0.8 mph NNE1.3 kmh NNE 1.8 mph2.9 kmh 30.08 in1018.6 mb 0.00 in0.0 mm 0.00 in0.0 mm 0.00 in0.0 mm
01:03 AM 57.2°F14.0°C 52.1°F11.2°C 83% 1.1 mph NNE1.8 kmh NNE 1.8 mph2.9 kmh 30.08 in1018.6 mb 0.00 in0.0 mm 0.00 in0.0 mm 0.00 in0.0 mm
12:58 AM 57.2°F14.0°C 52.1°F11.2°C 83% 0.2 mph NNE0.3 kmh NNE 0.9 mph1.4 kmh 30.07 in1018.3 mb 0.00 in0.0 mm 0.00 in0.0 mm 0.00 in0.0 mm
12:53 AM 57.2°F14.0°C 52.1°F11.2°C 83% 0.2 mph NNE0.3 kmh NNE 0.9 mph1.4 kmh 30.07 in1018.3 mb 0.00 in0.0 mm 0.00 in0.0 mm 0.00 in0.0 mm
12:48 AM 57.2°F14.0°C 52.1°F11.2°C 83% 0.3 mph NNE0.5 kmh NNE 0.9 mph1.4 kmh 30.07 in1018.3 mb 0.00 in0.0 mm 0.00 in0.0 mm 0.00 in0.0 mm
12:43 AM 57.2°F14.0°C 52.1°F11.2°C 83% Calm Calm 0.4 mph0.6 kmh 30.07 in1018.3 mb 0.00 in0.0 mm 0.00 in0.0 mm 0.00 in0.0 mm
12:37 AM 57.4°F14.1°C 52.3°F11.3°C 83% 0.1 mph NNE0.2 kmh NNE 0.4 mph0.6 kmh 30.06 in1017.9 mb 0.00 in0.0 mm 0.00 in0.0 mm 0.00 in0.0 mm
12:32 AM 57.4°F14.1°C 52.3°F11.3°C 83% Calm Calm 1.1 mph1.8 kmh 30.06 in1017.9 mb 0.00 in0.0 mm 0.00 in0.0 mm 0.00 in0.0 mm
12:25 AM 57.6°F14.2°C 52.5°F11.4°C 83% Calm Calm 2.0 mph3.2 kmh 30.06 in1017.9 mb 0.00 in0.0 mm 0.00 in0.0 mm 0.00 in0.0 mm
12:20 AM 57.6°F14.2°C 52.5°F11.4°C 83% 0.5 mph NNE0.8 kmh NNE 2.0 mph3.2 kmh 30.07 in1018.3 mb 0.00 in0.0 mm 0.00 in0.0 mm 0.00 in0.0 mm
12:15 AM 57.6°F14.2°C 52.5°F11.4°C 83% 0.7 mph NNE1.1 kmh NNE 2.9 mph4.7 kmh 30.07 in1018.3 mb 0.00 in0.0 mm 0.00 in0.0 mm 0.00 in0.0 mm
12:10 AM 57.6°F14.2°C 52.5°F11.4°C 83% 1.3 mph NNE2.1 kmh NNE 2.9 mph4.7 kmh 30.07 in1018.3 mb 0.00 in0.0 mm 0.00 in0.0 mm 0.00 in0.0 mm
12:05 AM 57.6°F14.2°C 52.1°F11.2°C 82% 0.6 mph NNE1.0 kmh NNE 2.9 mph4.7 kmh 30.06 in1017.9 mb 0.00 in0.0 mm 0.00 in0.0 mm 0.00 in0.0 mm
12:00 AM 57.6°F14.2°C 52.1°F11.2°C 82% 0.6 mph NNE1.0 kmh NNE 1.3 mph2.1 kmh 30.07 in1018.3 mb 0.00 in0.0 mm 0.00 in0.0 mm 0.00 in0.0 mm